createdAt,value
2023-03-07T00:02:23.627Z,97437.91
2023-03-07T00:07:16.374Z,97429.03
2023-03-07T00:09:43.466Z,97432.31
2023-03-07T00:12:10.474Z,97430.25
2023-03-07T00:14:37.662Z,97434.41
2023-03-07T00:17:04.509Z,97433.63
2023-03-07T00:19:31.544Z,97427.56
2023-03-07T00:21:58.312Z,97424.06
2023-03-07T00:24:25.419Z,97424.28
2023-03-07T00:26:52.196Z,97431.22
2023-03-07T00:29:19.225Z,97429.53
2023-03-07T00:31:46.060Z,97427.69
2023-03-07T00:34:13.115Z,97428.78
2023-03-07T00:36:39.896Z,97431.47
2023-03-07T00:39:08.337Z,97426.25
2023-03-07T00:41:35.082Z,97428.19
2023-03-07T00:44:02.213Z,97424.53
2023-03-07T00:46:29.076Z,97422.84
2023-03-07T00:48:56.159Z,97416.84
2023-03-07T00:51:23.727Z,97415.91
2023-03-07T00:53:50.816Z,97401.94
2023-03-07T00:56:19.427Z,97406.66
2023-03-07T00:58:46.732Z,97404.13
2023-03-07T01:01:15.230Z,97406.91
2023-03-07T01:03:42.453Z,97405.56
2023-03-07T01:06:12.729Z,97399.63
2023-03-07T01:08:39.866Z,97401.69
2023-03-07T01:11:06.864Z,97391.72
2023-03-07T01:13:34.676Z,97403.63
2023-03-07T01:16:28.917Z,97400.22
2023-03-07T01:18:57.915Z,97398.28
2023-03-07T01:21:29.809Z,97399.13
2023-03-07T01:23:56.908Z,97399.47
2023-03-07T01:26:25.788Z,97394.38
2023-03-07T01:28:54.570Z,97395.47
2023-03-07T01:31:21.894Z,97390.00
2023-03-07T01:33:49.279Z,97392.81
2023-03-07T01:36:21.532Z,97382.84
2023-03-07T01:38:49.018Z,97385.50
2023-03-07T01:41:16.227Z,97386.50
2023-03-07T01:43:43.342Z,97385.50
2023-03-07T01:46:19.557Z,97381.16
2023-03-07T01:48:58.589Z,97377.59
2023-03-07T01:51:25.495Z,97372.25
2023-03-07T01:53:52.510Z,97370.69
2023-03-07T01:56:19.588Z,97367.91
2023-03-07T01:58:46.679Z,97365.47
2023-03-07T02:01:13.545Z,97365.72
2023-03-07T02:03:50.673Z,97365.34
2023-03-07T02:06:17.440Z,97362.69
2023-03-07T02:08:45.300Z,97358.28
2023-03-07T02:11:12.518Z,97362.91
2023-03-07T02:13:39.653Z,97364.09
2023-03-07T02:16:07.591Z,97362.69
2023-03-07T02:18:37.871Z,97358.53
2023-03-07T02:21:15.366Z,97354.78
2023-03-07T02:24:04.289Z,97351.28
2023-03-07T02:26:31.037Z,97351.38
2023-03-07T02:28:59.564Z,97355.75
2023-03-07T02:31:26.355Z,97357.47
2023-03-07T02:33:53.457Z,97351.38
2023-03-07T02:36:23.712Z,97354.91
2023-03-07T02:38:51.184Z,97354.06
2023-03-07T02:41:19.867Z,97358.41
2023-03-07T02:43:46.964Z,97357.47
2023-03-07T02:46:14.019Z,97341.66
2023-03-07T02:48:41.091Z,97347.84
2023-03-07T02:51:07.843Z,97349.56
2023-03-07T02:53:34.918Z,97345.06
2023-03-07T02:56:01.752Z,97346.88
2023-03-07T02:58:28.772Z,97354.78
2023-03-07T03:00:55.506Z,97346.78
2023-03-07T03:03:22.602Z,97341.53
2023-03-07T03:05:49.335Z,97344.34
2023-03-07T03:08:16.483Z,97344.09
2023-03-07T03:10:43.203Z,97348.72
2023-03-07T03:13:10.272Z,97345.94
2023-03-07T03:15:36.988Z,97345.16
2023-03-07T03:18:04.093Z,97349.56
2023-03-07T03:20:30.889Z,97343.25
2023-03-07T03:22:58.148Z,97348.59
2023-03-07T03:25:27.123Z,97351.38
2023-03-07T03:27:54.156Z,97352.94
2023-03-07T03:30:20.975Z,97354.91
2023-03-07T03:32:48.042Z,97350.63
2023-03-07T03:35:15.002Z,97352.22
2023-03-07T03:37:42.079Z,97345.06
2023-03-07T03:40:14.464Z,97354.91
2023-03-07T03:42:42.299Z,97358.41
2023-03-07T03:45:10.261Z,97350.28
2023-03-07T03:47:37.767Z,97357.56
2023-03-07T03:50:04.923Z,97353.44
2023-03-07T03:52:31.987Z,97362.19
2023-03-07T03:54:58.779Z,97364.88
2023-03-07T03:57:25.869Z,97367.53
2023-03-07T03:59:52.674Z,97355.97
2023-03-07T04:02:19.852Z,97356.09
2023-03-07T04:04:46.661Z,97356.09
2023-03-07T04:07:13.712Z,97349.91
2023-03-07T04:09:40.505Z,97355.25
2023-03-07T04:12:07.902Z,97362.44
2023-03-07T04:14:34.650Z,97352.31
2023-03-07T04:17:01.881Z,97358.28
2023-03-07T04:19:29.537Z,97354.75
2023-03-07T04:21:56.684Z,97354.66
2023-03-07T04:24:23.438Z,97353.81
2023-03-07T04:26:50.500Z,97354.66
2023-03-07T04:29:17.242Z,97348.69
2023-03-07T04:31:44.515Z,97346.03
2023-03-07T04:34:11.290Z,97349.88
2023-03-07T04:36:38.368Z,97343.59
2023-03-07T04:39:05.117Z,97333.13
2023-03-07T04:41:32.859Z,97339.47
2023-03-07T04:43:59.611Z,97343.09
2023-03-07T04:46:26.773Z,97341.28
2023-03-07T04:48:53.530Z,97341.38
2023-03-07T04:51:20.621Z,97343.22
2023-03-07T04:53:47.358Z,97337.28
2023-03-07T04:56:17.438Z,97340.28
2023-03-07T04:58:44.612Z,97334.34
2023-03-07T05:01:11.773Z,97333.63
2023-03-07T05:03:38.601Z,97334.56
2023-03-07T05:06:07.585Z,97336.41
2023-03-07T05:08:34.941Z,97332.75
2023-03-07T05:11:02.164Z,97332.75
2023-03-07T05:13:28.929Z,97331.06
2023-03-07T05:15:57.153Z,97332.00
2023-03-07T05:18:24.171Z,97328.75
2023-03-07T05:20:51.682Z,97336.63
2023-03-07T05:23:18.953Z,97331.63
2023-03-07T05:25:48.785Z,97336.59
2023-03-07T05:28:16.928Z,97337.47
2023-03-07T05:30:44.842Z,97333.09
2023-03-07T05:33:11.782Z,97329.69
2023-03-07T05:35:39.505Z,97334.03
2023-03-07T05:38:06.718Z,97327.75
2023-03-07T05:40:33.963Z,97328.75
2023-03-07T05:43:00.702Z,97326.19
2023-03-07T05:45:27.814Z,97327.41
2023-03-07T05:47:54.562Z,97322.91
2023-03-07T05:50:22.345Z,97331.28
2023-03-07T05:52:49.108Z,97328.00
2023-03-07T05:55:16.274Z,97323.97
2023-03-07T05:57:43.106Z,97326.66
2023-03-07T06:00:11.475Z,97329.31
2023-03-07T06:02:38.337Z,97322.75
2023-03-07T06:05:05.892Z,97316.47
2023-03-07T06:07:32.653Z,97312.19
2023-03-07T06:09:59.837Z,97317.66
2023-03-07T06:12:26.611Z,97312.69
2023-03-07T06:14:53.679Z,97318.03
2023-03-07T06:17:21.053Z,97319.81
2023-03-07T06:19:48.122Z,97319.22
2023-03-07T06:22:14.901Z,97323.47
2023-03-07T06:24:41.985Z,97323.81
2023-03-07T06:27:08.741Z,97322.81
2023-03-07T06:29:36.267Z,97317.50
2023-03-07T06:32:03.111Z,97307.56
2023-03-07T06:34:30.242Z,97316.19
2023-03-07T06:36:56.985Z,97315.47
2023-03-07T06:39:24.041Z,97319.94
2023-03-07T06:41:50.840Z,97318.13
2023-03-07T06:44:17.997Z,97313.41
2023-03-07T06:46:45.136Z,97320.31
2023-03-07T06:49:12.354Z,97319.34
2023-03-07T06:51:39.117Z,97313.19
2023-03-07T06:54:06.223Z,97311.00
2023-03-07T06:56:34.370Z,97311.84
2023-03-07T06:59:01.658Z,97312.44
2023-03-07T07:01:28.585Z,97313.06
2023-03-07T07:03:56.395Z,97312.22
2023-03-07T07:06:23.149Z,97310.00
2023-03-07T07:08:53.100Z,97320.00
2023-03-07T07:11:19.904Z,97307.84
2023-03-07T07:13:47.055Z,97306.16
2023-03-07T07:16:13.827Z,97299.72
2023-03-07T07:18:40.931Z,97307.84
2023-03-07T07:21:07.732Z,97313.81
2023-03-07T07:23:34.896Z,97305.66
2023-03-07T07:26:01.828Z,97298.53
2023-03-07T07:28:28.911Z,97302.66
2023-03-07T07:30:55.656Z,97309.69
2023-03-07T07:33:22.718Z,97307.88
2023-03-07T07:35:49.560Z,97312.03
2023-03-07T07:38:16.687Z,97308.25
2023-03-07T07:40:43.501Z,97303.63
2023-03-07T07:43:14.916Z,97305.94
2023-03-07T07:45:41.700Z,97298.41
2023-03-07T07:48:08.863Z,97298.19
2023-03-07T07:50:35.708Z,97299.13
2023-03-07T07:53:02.859Z,97296.94
2023-03-07T07:55:29.667Z,97281.06
2023-03-07T07:57:56.757Z,97284.84
2023-03-07T08:00:24.856Z,97286.88
2023-03-07T08:02:52.022Z,97283.25
2023-03-07T08:05:19.531Z,97286.75
2023-03-07T08:07:46.687Z,97284.69
2023-03-07T08:10:16.956Z,97285.16
2023-03-07T08:12:44.617Z,97282.50
2023-03-07T08:15:11.941Z,97281.41
2023-03-07T08:17:39.078Z,97281.06
2023-03-07T08:20:09.839Z,97272.50
2023-03-07T08:22:37.371Z,97268.03
2023-03-07T08:25:05.435Z,97269.72
2023-03-07T08:27:32.559Z,97270.59
2023-03-07T08:30:00.139Z,97267.03
2023-03-07T08:32:27.777Z,97277.50
2023-03-07T08:34:54.596Z,97269.22
2023-03-07T08:37:21.757Z,97282.34
2023-03-07T08:39:48.546Z,97283.06
2023-03-07T08:42:15.628Z,97279.31
2023-03-07T08:44:42.392Z,97282.72
2023-03-07T08:47:11.440Z,97280.38
2023-03-07T08:49:38.419Z,97279.25
2023-03-07T08:52:05.536Z,97277.06
2023-03-07T08:54:32.646Z,97282.28
2023-03-07T08:57:00.375Z,97280.25
2023-03-07T08:59:27.302Z,97280.94
2023-03-07T09:01:55.549Z,97274.25
2023-03-07T09:04:22.454Z,97290.28
2023-03-07T09:06:49.560Z,97282.84
2023-03-07T09:09:16.308Z,97283.19
2023-03-07T09:11:43.488Z,97277.34
2023-03-07T09:14:10.269Z,97273.09
2023-03-07T09:16:37.460Z,97273.53
2023-03-07T09:19:04.609Z,97270.50
2023-03-07T09:21:32.006Z,97270.50
2023-03-07T09:23:58.814Z,97265.72
2023-03-07T09:26:25.998Z,97270.72
2023-03-07T09:28:52.750Z,97252.44
2023-03-07T09:31:19.908Z,97260.47
2023-03-07T09:33:47.223Z,97244.59
2023-03-07T09:36:14.554Z,97245.31
2023-03-07T09:38:41.351Z,97247.47
2023-03-07T09:41:25.390Z,97233.97
2023-03-07T09:44:08.516Z,97241.66
2023-03-07T09:47:03.805Z,97236.63
2023-03-07T09:49:34.314Z,97228.78
2023-03-07T09:52:01.390Z,97234.97
2023-03-07T09:54:42.993Z,97221.06
2023-03-07T09:57:16.742Z,97224.44
2023-03-07T09:59:49.172Z,97218.25
2023-03-07T10:02:36.484Z,97224.81
2023-03-07T10:05:18.589Z,97223.97
2023-03-07T10:07:45.661Z,97224.16
2023-03-07T10:10:14.105Z,97215.16
2023-03-07T10:12:52.591Z,97213.88
2023-03-07T10:15:43.116Z,97208.13
2023-03-07T10:18:32.808Z,97206.56
2023-03-07T10:21:47.574Z,97202.53
2023-03-07T10:24:14.664Z,97204.09
2023-03-07T10:26:45.304Z,97207.06
2023-03-07T10:29:17.878Z,97192.53
2023-03-07T10:32:03.769Z,97196.94
2023-03-07T10:34:32.660Z,97191.84
2023-03-07T10:37:11.525Z,97183.66
2023-03-07T10:39:43.686Z,97189.72
2023-03-07T10:42:13.881Z,97186.63
2023-03-07T10:44:40.963Z,97188.47
2023-03-07T10:47:08.869Z,97183.97
2023-03-07T10:49:40.593Z,97183.50
2023-03-07T10:52:27.935Z,97187.47
2023-03-07T10:54:55.274Z,97181.66
2023-03-07T10:57:27.218Z,97169.25
2023-03-07T10:59:54.335Z,97171.66
2023-03-07T11:02:37.181Z,97161.19
2023-03-07T11:05:21.651Z,97163.56
2023-03-07T11:07:48.548Z,97164.84
2023-03-07T11:10:33.281Z,97162.31
2023-03-07T11:13:00.134Z,97155.91
2023-03-07T11:15:27.673Z,97163.53
2023-03-07T11:17:54.445Z,97156.19
2023-03-07T11:20:30.461Z,97162.59
2023-03-07T11:23:16.872Z,97160.59
2023-03-07T11:25:44.160Z,97158.75
2023-03-07T11:28:33.609Z,97156.91
2023-03-07T11:31:06.867Z,97140.91
2023-03-07T11:33:59.369Z,97143.44
2023-03-07T11:36:35.054Z,97142.59
2023-03-07T11:39:07.345Z,97146.53
2023-03-07T11:41:39.686Z,97137.34
2023-03-07T11:44:18.833Z,97137.06
2023-03-07T11:47:17.519Z,97126.31
2023-03-07T11:50:06.612Z,97127.69
2023-03-07T11:52:39.526Z,97123.16
2023-03-07T11:55:18.454Z,97117.63
2023-03-07T11:58:03.700Z,97122.03
2023-03-07T12:01:01.418Z,97127.53
2023-03-07T12:03:46.740Z,97127.66
2023-03-07T12:06:39.190Z,97113.38
2023-03-07T12:09:21.097Z,97117.31
2023-03-07T12:11:56.612Z,97122.69
2023-03-07T12:14:29.826Z,97108.69
2023-03-07T12:16:56.847Z,97107.53
2023-03-07T12:19:50.232Z,97098.50
2023-03-07T12:22:27.082Z,97106.56
2023-03-07T12:25:25.489Z,97099.31
2023-03-07T12:28:10.898Z,97103.72
2023-03-07T12:30:56.801Z,97093.38
2023-03-07T12:33:28.072Z,97098.50
2023-03-07T12:35:58.675Z,97103.13
2023-03-07T12:38:36.521Z,97101.97
2023-03-07T12:41:16.227Z,97100.88
2023-03-07T12:43:45.401Z,97101.03
2023-03-07T12:46:18.066Z,97088.13
2023-03-07T12:48:48.306Z,97092.97
2023-03-07T12:51:21.290Z,97083.78
2023-03-07T12:53:51.577Z,97081.38
2023-03-07T12:56:33.927Z,97085.88
2023-03-07T12:59:04.661Z,97089.84
2023-03-07T13:01:33.750Z,97077.81
2023-03-07T13:04:10.724Z,97081.22
2023-03-07T13:06:39.953Z,97069.31
2023-03-07T13:09:06.857Z,97062.97
2023-03-07T13:11:34.419Z,97075.53
2023-03-07T13:14:02.453Z,97063.25
2023-03-07T13:16:33.642Z,97067.22
2023-03-07T13:19:35.959Z,97070.47
2023-03-07T13:22:03.590Z,97068.63
2023-03-07T13:24:40.162Z,97061.09
2023-03-07T13:27:17.164Z,97062.09
2023-03-07T13:30:11.932Z,97050.66
2023-03-07T13:32:48.599Z,97052.34
2023-03-07T13:35:27.316Z,97051.66
2023-03-07T13:38:16.186Z,97055.78
2023-03-07T13:40:48.752Z,97040.19
2023-03-07T13:43:18.730Z,97035.53
2023-03-07T13:45:48.785Z,97043.50
2023-03-07T13:48:25.249Z,97044.00
2023-03-07T13:50:51.992Z,97032.84
2023-03-07T13:53:32.019Z,97029.69
2023-03-07T13:56:17.211Z,97030.84
2023-03-07T13:58:56.413Z,97032.72
2023-03-07T14:01:32.852Z,97029.16
2023-03-07T14:04:38.371Z,97029.69
2023-03-07T14:07:26.532Z,97019.28
2023-03-07T14:09:58.063Z,97013.91
2023-03-07T14:12:31.910Z,97015.88
2023-03-07T14:15:05.652Z,97016.41
2023-03-07T14:17:41.456Z,97007.94
2023-03-07T14:20:23.679Z,97003.97
2023-03-07T14:23:42.424Z,97011.59
2023-03-07T14:26:13.212Z,97004.66
2023-03-07T14:28:47.998Z,97003.69
2023-03-07T14:31:30.402Z,97001.16
2023-03-07T14:33:57.840Z,96995.09
2023-03-07T14:36:26.467Z,96999.59
2023-03-07T14:38:58.015Z,96996.06
2023-03-07T14:41:45.540Z,96993.63
2023-03-07T14:44:47.551Z,96987.56
2023-03-07T14:47:23.747Z,96984.63
2023-03-07T14:49:54.449Z,96977.94
2023-03-07T14:52:30.865Z,96981.78
2023-03-07T14:55:03.001Z,96967.63
2023-03-07T14:57:40.116Z,96977.56
2023-03-07T15:00:11.551Z,96972.56
2023-03-07T15:03:02.331Z,96964.81
2023-03-07T15:05:35.711Z,96963.97
2023-03-07T15:08:02.882Z,96970.31
2023-03-07T15:10:33.767Z,96966.19
2023-03-07T15:13:00.945Z,96965.53
2023-03-07T15:15:42.229Z,96965.53
2023-03-07T15:18:33.591Z,96959.56
2023-03-07T15:21:00.447Z,96959.72
2023-03-07T15:23:28.053Z,96950.44
2023-03-07T15:25:57.612Z,96946.63
2023-03-07T15:28:35.282Z,96943.94
2023-03-07T15:31:02.597Z,96939.41
2023-03-07T15:33:31.365Z,96942.22
2023-03-07T15:36:19.372Z,96942.09
2023-03-07T15:38:50.755Z,96946.47
2023-03-07T15:41:36.948Z,96942.38
2023-03-07T15:44:16.681Z,96932.63
2023-03-07T15:46:46.211Z,96933.50
2023-03-07T15:49:22.208Z,96936.19
2023-03-07T15:51:51.099Z,96931.63
2023-03-07T15:54:20.654Z,96933.50
2023-03-07T15:56:54.273Z,96927.59
2023-03-07T15:59:32.922Z,96927.00
2023-03-07T16:02:31.703Z,96924.19
2023-03-07T16:05:26.425Z,96923.78
2023-03-07T16:07:54.552Z,96928.19
2023-03-07T16:10:22.191Z,96923.66
2023-03-07T16:12:48.998Z,96907.53
2023-03-07T16:15:16.867Z,96910.50
2023-03-07T16:17:43.836Z,96909.81
2023-03-07T16:20:18.482Z,96917.19
2023-03-07T16:22:47.223Z,96907.59
2023-03-07T16:25:15.704Z,96906.06
2023-03-07T16:27:48.297Z,96910.59
2023-03-07T16:30:16.929Z,96904.84
2023-03-07T16:32:44.024Z,96911.91
2023-03-07T16:35:14.216Z,96907.94
2023-03-07T16:37:41.039Z,96908.53
2023-03-07T16:40:09.401Z,96910.38
2023-03-07T16:42:36.484Z,96911.50
2023-03-07T16:45:05.259Z,96908.81
2023-03-07T16:47:32.052Z,96912.09
2023-03-07T16:49:59.146Z,96912.81
2023-03-07T16:52:25.912Z,96923.72
2023-03-07T16:54:52.987Z,96926.81
2023-03-07T16:57:19.899Z,96932.91
2023-03-07T16:59:47.125Z,96939.09
2023-03-07T17:02:16.497Z,96942.09
2023-03-07T17:04:44.522Z,96940.38
2023-03-07T17:07:22.805Z,96941.38
2023-03-07T17:09:50.141Z,96946.88
2023-03-07T17:12:16.901Z,96942.00
2023-03-07T17:14:44.307Z,96943.22
2023-03-07T17:17:16.587Z,96942.69
2023-03-07T17:19:43.654Z,96941.13
2023-03-07T17:22:10.419Z,96944.97
2023-03-07T17:24:37.528Z,96945.25
2023-03-07T17:27:04.292Z,96937.34
2023-03-07T17:29:42.192Z,96937.34
2023-03-07T17:32:09.231Z,96936.53
2023-03-07T17:34:36.780Z,96937.66
2023-03-07T17:37:03.982Z,96930.59
2023-03-07T17:39:31.227Z,96931.59
2023-03-07T17:41:58.898Z,96931.88
2023-03-07T17:44:26.162Z,96933.59
2023-03-07T17:46:53.256Z,96937.94
2023-03-07T17:49:21.075Z,96935.72
2023-03-07T17:51:53.046Z,96945.75
2023-03-07T17:54:20.410Z,96936.72
2023-03-07T17:56:47.252Z,96943.06
2023-03-07T17:59:14.305Z,96937.88
2023-03-07T18:01:41.201Z,96931.25
2023-03-07T18:04:08.403Z,96937.44
2023-03-07T18:06:36.663Z,96937.63
2023-03-07T18:09:05.325Z,96945.81
2023-03-07T18:11:32.449Z,96942.41
2023-03-07T18:13:59.565Z,96946.94
2023-03-07T18:16:27.178Z,96945.09
2023-03-07T18:19:00.564Z,96950.47
2023-03-07T18:21:29.921Z,96951.31
2023-03-07T18:23:57.387Z,96948.25
2023-03-07T18:26:24.386Z,96943.72
2023-03-07T18:28:53.374Z,96958.97
2023-03-07T18:31:30.383Z,96959.94
2023-03-07T18:33:57.528Z,96952.34
2023-03-07T18:36:24.845Z,96952.03
2023-03-07T18:38:51.938Z,96944.69
2023-03-07T18:41:20.506Z,96952.34
2023-03-07T18:43:47.724Z,96949.78
2023-03-07T18:46:16.880Z,96949.78
2023-03-07T18:48:44.076Z,96951.78
2023-03-07T18:51:13.087Z,96944.44
2023-03-07T18:53:40.604Z,96941.06
2023-03-07T18:56:12.152Z,96947.59
2023-03-07T18:58:39.606Z,96944.75
2023-03-07T19:01:13.284Z,96944.75
2023-03-07T19:03:40.661Z,96947.59
2023-03-07T19:06:08.004Z,96949.41
2023-03-07T19:08:35.125Z,96956.75
2023-03-07T19:11:02.977Z,96953.09
2023-03-07T19:13:30.160Z,96954.91
2023-03-07T19:16:07.345Z,96956.75
2023-03-07T19:18:35.257Z,96958.59
2023-03-07T19:21:19.286Z,96957.59
2023-03-07T19:23:46.503Z,96959.88
2023-03-07T19:26:13.975Z,96952.34
2023-03-07T19:28:41.145Z,96954.44
2023-03-07T19:31:13.013Z,96940.19
2023-03-07T19:33:40.206Z,96947.66
2023-03-07T19:36:08.851Z,96949.25
2023-03-07T19:38:36.140Z,96942.06
2023-03-07T19:41:04.008Z,96945.59
2023-03-07T19:43:31.512Z,96940.50
2023-03-07T19:45:58.509Z,96929.91
2023-03-07T19:48:26.304Z,96944.19
2023-03-07T19:50:53.548Z,96939.41
2023-03-07T19:53:21.037Z,96929.38
2023-03-07T19:55:47.857Z,96926.41
2023-03-07T19:58:15.120Z,96915.97
2023-03-07T20:00:42.727Z,96913.28
2023-03-07T20:03:14.475Z,96920.50
2023-03-07T20:05:42.560Z,96926.56
2023-03-07T20:08:10.347Z,96930.09
2023-03-07T20:10:38.207Z,96927.56
2023-03-07T20:13:05.817Z,96931.09
2023-03-07T20:15:33.521Z,96925.03
2023-03-07T20:18:02.359Z,96932.50
2023-03-07T20:20:29.341Z,96930.69
2023-03-07T20:22:57.129Z,96936.75
2023-03-07T20:25:24.229Z,96938.88
2023-03-07T20:27:51.296Z,96936.06
2023-03-07T20:30:19.921Z,96923.91
2023-03-07T20:32:47.642Z,96932.09
2023-03-07T20:35:14.454Z,96924.75
2023-03-07T20:37:41.597Z,96924.75
2023-03-07T20:40:09.065Z,96925.06
2023-03-07T20:42:36.189Z,96926.34
2023-03-07T20:45:03.218Z,96923.66
2023-03-07T20:47:32.489Z,96922.81
2023-03-07T20:49:59.348Z,96923.09
2023-03-07T20:52:26.525Z,96918.44
2023-03-07T20:54:53.266Z,96924.81
2023-03-07T20:57:20.418Z,96924.94
2023-03-07T20:59:47.281Z,96921.81
2023-03-07T21:02:14.396Z,96929.16
2023-03-07T21:04:41.243Z,96927.34
2023-03-07T21:07:08.380Z,96925.66
2023-03-07T21:09:35.236Z,96920.56
2023-03-07T21:12:02.370Z,96926.22
2023-03-07T21:14:29.442Z,96927.09
2023-03-07T21:16:56.631Z,96931.56
2023-03-07T21:19:23.365Z,96930.88
2023-03-07T21:21:50.476Z,96932.72
2023-03-07T21:24:17.309Z,96936.94
2023-03-07T21:26:44.548Z,96930.03
2023-03-07T21:29:13.370Z,96939.06
2023-03-07T21:31:40.508Z,96934.72
2023-03-07T21:34:08.220Z,96932.47
2023-03-07T21:36:35.462Z,96922.44
2023-03-07T21:39:04.193Z,96926.50
2023-03-07T21:41:31.328Z,96924.00
2023-03-07T21:43:58.193Z,96924.97
2023-03-07T21:46:25.519Z,96928.91
2023-03-07T21:48:52.354Z,96919.06
2023-03-07T21:51:19.520Z,96927.94
2023-03-07T21:53:46.284Z,96915.50
2023-03-07T21:56:14.313Z,96911.84
2023-03-07T21:58:41.222Z,96914.81
2023-03-07T22:01:12.421Z,96907.91
2023-03-07T22:03:39.316Z,96899.88
2023-03-07T22:06:07.991Z,96918.34
2023-03-07T22:08:35.166Z,96909.72
2023-03-07T22:11:03.429Z,96905.53
2023-03-07T22:13:32.028Z,96906.50
2023-03-07T22:15:59.814Z,96895.22
2023-03-07T22:18:26.613Z,96907.09
2023-03-07T22:20:55.027Z,96905.13
2023-03-07T22:23:26.565Z,96898.59
2023-03-07T22:25:53.945Z,96897.34
2023-03-07T22:28:20.888Z,96900.16
2023-03-07T22:30:49.383Z,96908.91
2023-03-07T22:33:16.474Z,96910.91
2023-03-07T22:35:43.837Z,96910.19
2023-03-07T22:38:10.645Z,96908.78
2023-03-07T22:40:39.282Z,96911.59
2023-03-07T22:43:06.227Z,96913.59
2023-03-07T22:45:33.358Z,96917.97
2023-03-07T22:48:00.214Z,96926.16
2023-03-07T22:50:27.562Z,96922.63
2023-03-07T22:52:55.201Z,96927.41
2023-03-07T22:55:22.290Z,96932.19
2023-03-07T22:57:49.134Z,96938.97
2023-03-07T23:00:16.446Z,96938.53
2023-03-07T23:02:43.355Z,96937.00
2023-03-07T23:05:10.454Z,96945.03
2023-03-07T23:07:37.487Z,96947.16
2023-03-07T23:10:04.799Z,96942.63
2023-03-07T23:12:31.646Z,96940.53
2023-03-07T23:14:58.742Z,96944.63
2023-03-07T23:17:25.587Z,96943.06
2023-03-07T23:19:52.932Z,96934.19
2023-03-07T23:22:19.706Z,96938.97
2023-03-07T23:24:47.058Z,96945.31
2023-03-07T23:27:13.866Z,96937.41
2023-03-07T23:29:41.186Z,96931.22
2023-03-07T23:32:08.167Z,96933.06
2023-03-07T23:34:35.738Z,96934.88
2023-03-07T23:37:02.507Z,96932.34
2023-03-07T23:39:29.622Z,96933.63
2023-03-07T23:41:56.396Z,96935.88
2023-03-07T23:44:23.552Z,96929.09
2023-03-07T23:46:50.353Z,96933.22
2023-03-07T23:49:17.528Z,96932.34
2023-03-07T23:51:44.714Z,96944.06
2023-03-07T23:54:11.803Z,96942.09
2023-03-07T23:56:38.584Z,96950.13
2023-03-07T23:59:05.917Z,96951.38
